Asau, Samoa

2:37 PM WSST on May 29, 2015 (GMT +1300)
Faleolo International | | Change Station
CLOSE
Current Station
Airport
Location: Faleolo,
Elevation: 16 ft
Nearby Weather Stations

Elev 16 ft 13.83 °S, 172.01 °W | Updated 37 minutes ago

Scattered Clouds
Scattered Clouds
84 °F
Feels Like 94 °F
N
8
Wind Variable Wind from ESE

Today
High -- | Low -- °F
--% Chance of Precip.
Yesterday
High -- | Low -- °F
Precip. -- in
6:46 AM 6:09 PM
Waxing Gibbous, 80% visible
Pressure 29.89 in
Visibility 6.2 miles
Clouds Few 1800 ft
Scattered Clouds 2000 ft
Heat Index 94 °F
Dew Point 77 °F
Humidity 79%
Rainfall 0.00 in
Snow Depth Not available.
UV 5 out of 12
Pollen Not available.
Air Quality Not available.
Flu Activity Not available.
METAR NSFA 290100Z 11007KT 9999 FEW018CB SCT020 29/25 Q1012

More Conditions Fewer Conditions

Pressure 29.89 in
Visibility 6.2 miles
Clouds Few 1800 ft
Scattered Clouds 2000 ft
Heat Index 94 °F
Dew Point 77 °F
Humidity 79%
Rainfall 0.00 in
Snow Depth Not available.
UV 5 out of 12
Pollen Not available.
Air Quality Not available.
Flu Activity Not available.
METAR NSFA 290100Z 11007KT 9999 FEW018CB SCT020 29/25 Q1012

More Conditions Fewer Conditions

10-Day Weather Forecast

Almanac

Astronomy

May. 29, 2015 Rise Set
Actual Time
Civil Twilight
Nautical Twilight
Astronomical Twilight
Moon
Length of Visible Light
Length of Day
Tomorrow will be .
, % of the Moon is Illuminated

Today's Extremes

Country Highs Country Lows

Community

WunderPhotos

Upload Photos

1,825,111 photos uploaded!

WunderBlogs® & News

Nearby

Air Quality

  Air Quality AQ Index Pollutant
Not available.

Snow Depth

Station Depth Elevation

Earthquake Activity

City Distance Mag. Time & Date
Minimum magnitude displayed is 2.5.

Coastal Water Temperatures

Place Temperature

Stations

Nearby Weather Stations

Station Location Temp. Windchill Dew Point Humidity Wind Precip. Elev Updated Type